Date,TemperatureHighF,TemperatureAvgF,TemperatureLowF,DewpointHighF,DewpointAvgF,DewpointLowF,HumidityHigh,HumidityAvg,HumidityLow,PressureMaxIn,PressureMinIn,WindSpeedMaxMPH,WindSpeedAvgMPH,GustSpeedMaxMPH,PrecipitationSumIn
2013-3-1,33.6,30.4,27.4,32.1,25.9,21.5,94,83,76,29.93,29.73,9,2,14,0.02
2013-3-2,27.4,24.7,22.7,22.9,20.3,17.5,89,83,74,29.96,29.88,8,2,12,0.00
2013-3-3,24.9,22.8,21.1,18.9,17.7,15.2,88,80,67,29.91,29.87,8,2,14,0.00
2013-3-4,30.4,28.0,25.0,22.3,20.0,17.3,79,72,65,30.06,29.96,13,5,20,0.00
2013-3-5,33.5,27.4,22.6,24.6,21.7,19.7,91,79,65,30.12,30.00,7,2,12,0.06
2013-3-6,40.4,32.4,21.8,32.6,27.7,18.5,91,83,67,30.16,29.99,6,2,13,0.05
2013-3-7,37.4,34.0,31.3,32.9,29.3,23.4,94,83,67,30.29,30.14,6,1,9,0.00
2013-3-8,40.5,33.3,25.8,26.4,24.0,21.9,89,69,49,30.40,30.27,7,1,13,0.00
2013-3-9,46.3,34.6,23.1,33.3,26.8,21.4,95,74,52,30.43,30.25,5,1,8,0.00
2013-3-10,63.5,49.8,34.5,31.5,27.6,23.8,70,44,27,30.25,29.98,6,2,12,0.00
2013-3-11,55.7,52.3,48.4,44.5,32.5,28.3,66,47,41,29.99,29.67,10,3,20,0.00
2013-3-12,55.7,41.1,35.3,47.2,34.5,27.8,93,77,66,29.91,29.67,12,5,20,0.24
2013-3-13,38.7,33.0,24.0,31.1,24.9,18.0,87,72,56,29.94,29.82,15,5,22,0.00
2013-3-14,32.4,25.6,19.1,18.6,12.6,6.7,83,59,35,30.07,29.94,16,6,27,0.00
2013-3-15,38.7,31.5,24.7,30.7,23.6,14.4,92,73,57,30.06,29.72,14,4,25,0.03
2013-3-16,30.1,25.2,17.0,20.6,17.3,13.9,88,72,61,30.00,29.87,8,2,12,0.00
2013-3-17,28.9,21.1,17.8,15.5,11.2,8.9,74,65,54,30.37,30.27,6,1,12,0.02
2013-3-18,33.4,24.6,15.6,28.7,16.7,9.9,91,73,43,30.37,29.76,18,3,21,0.00
2013-3-19,37.4,32.5,26.4,33.0,26.6,19.3,91,79,57,29.83,29.70,16,4,25,0.13
2013-3-20,34.4,28.0,24.0,24.3,19.8,14.2,86,72,46,29.84,29.79,15,5,22,0.00
2013-3-21,31.1,26.3,20.5,24.9,17.8,12.5,90,71,47,29.83,29.72,10,4,21,0.00
2013-3-22,32.8,29.0,25.4,26.5,24.2,20.6,93,82,70,29.92,29.74,11,4,18,0.00
2013-3-23,37.7,33.0,29.2,26.7,24.8,21.6,89,72,55,30.01,29.90,11,4,20,0.03
2013-3-24,37.9,32.7,25.7,27.9,24.1,20.4,91,71,52,30.01,29.76,9,2,13,0.00
2013-3-25,40.1,34.9,29.7,30.2,26.8,23.6,92,72,58,29.75,29.63,10,3,14,0.00
2013-3-26,43.4,37.2,28.6,33.9,29.1,25.8,91,73,52,29.94,29.73,6,1,12,0.00
2013-3-27,45.4,37.4,32.8,34.7,30.3,26.5,94,76,54,30.05,29.92,12,4,20,0.04
2013-3-28,44.3,38.7,33.7,35.2,31.8,25.6,91,77,49,30.20,30.04,6,3,12,0.00
2013-3-29,48.9,41.6,36.9,35.1,31.8,27.0,84,69,44,30.20,30.12,7,3,14,0.00
2013-3-30,49.2,39.7,28.6,32.5,25.9,17.1,86,60,31,30.21,30.06,6,2,10,0.00
2013-3-31,58.8,45.3,37.1,42.8,32.0,23.4,90,62,34,30.06,29.62,10,2,17,0.05